Logo AVAMET
Benvolgut visitant, si us plau, ingressa Recuperar contrasenya

les Useres

Dades diàries. Acumulats / Últims 30 dies disponibles

Data Temperatura (°C) Humitat rel. (%) Pressió rel. (hPa) Vent (km/h) Precipitació
Mínima Mitjana Màxima Amplitud
tèrmica
Mínima Mitjana Màxima Mínima Mitjana Màxima Predom. Mitjana Ràfega
màxima
Total
(mm)
Índex-n
Mínima Mitjana Màxima Mínima Mitjana Màxima n
0 a 1
P0 max
mm 5'
Dades mensuals acumulades fins l'últim dia disponible
09/2019 12,8 17,5 20,5 21,3 19,6 25,6 30,6 17,8 32 65 89 1.006 1.017 1.027   9,1 66,0 31,4
Dades anuals acumulades fins l'últim dia disponible
2019 1,8 13,2 25,9 17,5 9,1 22,5 38,4 36,6 7 58 97 987 1.016 1.034   7,6 122,3 238,4
Últims 30 dies disponibles
17-09-2019 18,1     23,3     28,6 10,5 42 61 82 1.012 1.015 1.017 SE 5,0 33,8 0,0
16-09-2019 19,6     22,3     27,2 7,6 51 73 89 1.016 1.017 1.019 NNW 5,8 25,7 0,0
15-09-2019 19,1     21,5     25,3 6,2 56 70 88 1.018 1.019 1.022 NNW 10,5 30,6 0,0
14-09-2019 17,4     21,6     24,8 7,4 45 57 83 1.020 1.022 1.025 NNW 12,1 38,6 0,0
13-09-2019 16,6     19,8     21,5 4,9 43 65 87 1.022 1.024 1.027 NNW 13,7 46,7 15,4 0,37 1,90
12-09-2019 17,6     20,7     24,8 7,2 41 60 80 1.022 1.025 1.027 NNW 13,7 45,1 0,4
11-09-2019 12,8     16,3     19,6 6,8 58 75 89 1.010 1.017 1.023 NNW 18,0 66,0 6,6 0,20
10-09-2019 14,2     19,3     22,4 8,2 32 53 82 1.006 1.008 1.011 NNW 14,3 49,9 0,2
09-09-2019 17,7     21,7     26,5 8,8 57 74 83 1.009 1.013 1.016 SE 5,3 40,2 0,0
08-09-2019 17,5     21,1     24,8 7,3 48 70 81 1.014 1.016 1.018 SE 6,8 43,5 0,0
07-09-2019 17,1     20,0     24,3 7,2 49 61 76 1.016 1.018 1.019 SE 7,1 35,4 0,0
06-09-2019 15,6     20,0     25,4 9,8 42 55 80 1.016 1.018 1.019 SE 8,5 40,2 0,0
05-09-2019 18,8     22,6     28,2 9,4 36 54 88 1.015 1.016 1.017 NNW 8,5 40,2 0,0
04-09-2019 19,6     23,3     28,0 8,4 59 78 89 1.015 1.017 1.019 SE 5,8 35,4 0,0
03-09-2019 17,8     22,0     26,4 8,6 57 68 85 1.018 1.019 1.020 SE 6,8 38,6 0,0
02-09-2019 17,7     21,9     26,8 9,1 56 73 89 1.013 1.016 1.019 SE 7,1 43,5 7,2 0,17 1,10
01-09-2019 20,5     25,1     30,6 10,1 43 59 79 1.011 1.012 1.014 SE 5,5 43,5 1,6 0,42 0,80
31-08-2019 21,8     26,5     31,3 9,5 36 54 71 1.012 1.014 1.016 S 5,6 32,2 0,0
30-08-2019 20,5     25,3     31,4 10,9 44 62 83 1.016 1.017 1.019 SE 5,0 32,2 0,0
29-08-2019 19,9     24,5     30,2 10,3 42 63 83 1.016 1.017 1.018 SE 5,8 38,6 0,0
28-08-2019 17,3     22,9     28,5 11,2 54 68 86 1.014 1.015 1.017 SE 5,0 32,2 0,0
27-08-2019 17,4     20,9     26,1 8,7 57 72 89 1.011 1.014 1.016 NW 8,2 66,0 34,2
26-08-2019 19,3     23,2     26,4 7,1 55 64 86 1.013 1.015 1.016 SE 5,1 32,2 0,2
25-08-2019 19,4     24,4     30,6 11,2 37 61 80 1.014 1.016 1.017 SE 6,9 41,8 0,0
24-08-2019 18,9     24,2     29,6 10,7 46 62 78 1.016 1.017 1.018 SE 5,3 32,2 0,0
23-08-2019 18,1     24,4     30,7 12,6 39 58 75 1.017 1.018 1.019 SE 5,5 35,4 0,0
22-08-2019 18,6     23,3     28,4 9,8 51 63 81 1.018 1.018 1.019 SE 6,4 38,6 0,0
21-08-2019 18,1     20,6     23,8 5,7 68 80 92 1.017 1.019 1.020 SE 5,6 33,8 9,0
20-08-2019 19,7     22,1     24,4 4,7 63 76 85 1.013 1.016 1.020 NNW 6,6 30,6 2,6
19-08-2019 21,4     24,4     28,9 7,5 53 73 85 1.011 1.013 1.015 E 7,6 30,6 0,0
Últims 13 mesos disponibles
08/2019 17,3 20,3 25,9 24,7 23,8 29,9 36,4 19,1 48 65 80 1.009 1.014 1.019 SE 6,4 66,0 47,0
07/2019 19,3 20,9 23,3 25,6 25,5 31,0 35,1 15,8 37 55 71 1.004 1.012 1.019 SE 6,9 53,1 12,8
06/2019 10,3 16,8 23,7 21,7 18,7 26,9 38,4 28,1 26 54 72 1.006 1.013 1.020 SE 7,4 61,2 0,2
05/2019 8,5 12,2 17,1 16,8 15,9 21,9 28,2 19,7 41 61 85 1.003 1.013 1.022 SE 7,5 77,2 31,4
04/2019 5,8 9,7 12,3 13,3 12,8 17,8 25,7 19,9 39 62 88 997 1.011 1.023 SE 9,5 62,8 95,8
03/2019 5,1 9,2 14,7 13,7 10,2 18,8 25,7 20,6 35 50 82 1.008 1.021 1.028 SE 7,4 62,8 19,6
02/2019 3,4 7,2 13,7 11,4 9,1 16,6 24,6 21,2 33 57 79 990 1.023 1.032 SE 7,2 122,3 0,0
01/2019 1,8 6,6 10,7 10,2 9,7 14,4 19,8 18,0 22 52 77 998 1.017 1.029 SE 7,8 99,8 0,2
12/2018 5,2 9,1 12,7 12,6 11,7 16,7 22,4 17,2 31 64 85 1.006 1.023 1.029 SE 4,1 80,5 9,2
11/2018 5,9 9,7 14,1 12,7 11,8 16,3 20,8 14,9 45 71 94 1.000 1.013 1.022 NNW 5,7 91,7 133,8
10/2018 6,7 13,4 17,6 16,9 11,2 21,1 26,8 20,1 36 68 94 997 1.013 1.024 SE 6,6 82,1 240,4
09/2018 15,2 18,5 22,3 22,2 21,6 27,0 31,1 15,9 50 73 87 1.010 1.018 1.028 SE 5,5 62,8 85,4
08/2018 18,4 21,5 26,3 26,1 22,7 31,1 35,1 16,7 SE 7,4 78,9 15,0
Tots els anys disponibles
Temperatura (°C)
Humitat relativa (%)
Velocitat del vent i ràfega màxima (km/h)
Direcció del vent (°)
Pressió (hPa)
Precipitació (mm)
Nota sobre les dades: s'avisa a l'usuari de la provisionalitat i no oficialitat d'aquestes dades
Logo AVAMET blanc
Web allotjada a Sollutia
Llicència de Creative CommonsLa web d'AVAMET i els seus continguts estan subjectes a una llicència de
Reconeixement - No Comercial - Compartir igual
Properes estacions: Altea - Club Nàutic d'Altea (Soci),    - - - - -      Últimes estacions: Llíria - Bodegas del Campo (Soci), La Pobla Tornesa (Soci), Quartell (Soci), Alzira - Est (Soci/Inforatge), San Miguel de las Salinas (MeteOrihuela), Segorbe (Inforatge), Alcalà de Xivert - Alcossebre (Inforatge), Moixent - la Foia (Soci), Callosa d'en Sarrià - Centre (Soci) - - -